Time;durP1;ratioP1;P1;durP2;ratioP2;P2;SDS_P1;SDS_P2;PMS_P1;PMS_P2;Temp;Humidity;BMP_temperature;BMP_pressure;BME280_temperature;BME280_humidity;BME280_pressure;Samples;Min_cycle;Max_cycle;Signal;HPM_P1;HPM_P2
2022/09/26 00:01:42;;;;;;;;;;;;;;;20.45;51.91;98489.63;4444025;32;34062;-88
2022/09/26 00:04:20;;;;;;;;;;;;;;;19.85;53.58;98487.44;4452150;32;34460;-84
2022/09/26 00:06:51;;;;;;;;;;;;;;;19.81;54.01;98484.94;4447428;32;34288;-83
2022/09/26 00:09:18;;;;;;;;;;;;;;;20.26;52.84;98473.66;4466739;32;34194;-82
2022/09/26 00:11:45;;;;;;;;;;;;;;;20.07;53.19;98468.22;4480668;32;34270;-83
2022/09/26 00:14:16;;;;;;;;;;;;;;;19.67;54.50;98473.16;4473164;32;33886;-83
2022/09/26 00:16:43;;;;;;;;;;;;;;;20.65;51.78;98468.69;4467483;32;34233;-84
2022/09/26 00:19:11;;;;;;;;;;;;;;;19.80;53.96;98473.56;4467622;32;35088;-83
2022/09/26 00:21:38;;;;;;;;;;;;;;;19.72;54.58;98477.37;4467567;32;33702;-84
2022/09/26 00:24:06;;;;;;;;;;;;;;;19.91;53.99;98467.94;4468265;32;34536;-83
2022/09/26 00:26:34;;;;;;;;;;;;;;;20.30;53.05;98470.00;4467764;32;33498;-83
2022/09/26 00:29:03;;;;;;;;;;;;;;;20.09;53.48;98469.87;4482034;31;34845;-84
2022/09/26 00:31:31;;;;;;;;;;;;;;;19.41;55.46;98463.50;4481342;32;33833;-86
2022/09/26 00:33:58;;;;;;;;;;;;;;;19.76;54.48;98463.22;4474332;32;34327;-88
2022/09/26 00:36:26;;;;;;;;;;;;;;;17.84;60.06;98466.63;4474983;32;34393;-83
2022/09/26 00:39:04;;;;;;;;;;;;;;;18.73;57.47;98448.25;4478407;32;35063;-86
2022/09/26 00:41:32;;;;;;;;;;;;;;;19.10;56.72;98453.16;4482001;32;34830;-81
2022/09/26 00:43:59;;;;;;;;;;;;;;;19.48;55.72;98453.66;4471451;32;33874;-83
2022/09/26 00:46:31;;;;;;;;;;;;;;;20.07;53.96;98449.81;4469330;32;33906;-82
2022/09/26 00:49:17;;;;;;;;;;;;;;;19.48;55.50;98447.53;4467307;32;34268;-88
2022/09/26 00:51:46;;;;;;;;;;;;;;;19.47;55.12;98445.78;4473201;32;34169;-84
2022/09/26 00:54:14;;;;;;;;;;;;;;;19.69;54.71;98436.28;4476594;32;34652;-83
2022/09/26 00:56:42;;;;;;;;;;;;;;;19.56;55.28;98424.44;4460863;32;34366;-84
2022/09/26 00:59:15;;;;;;;;;;;;;;;19.59;55.26;98416.47;4470954;32;33992;-83
2022/09/26 01:01:42;;;;;;;;;;;;;;;19.56;55.03;98421.81;4459310;32;34206;-83
2022/09/26 01:04:09;;;;;;;;;;;;;;;19.65;55.11;98416.25;4457143;32;35139;-83
2022/09/26 01:06:37;;;;;;;;;;;;;;;20.19;53.48;98417.75;4453521;32;33578;-83
2022/09/26 01:09:07;;;;;;;;;;;;;;;20.32;53.03;98413.75;4467628;32;33993;-83
2022/09/26 01:11:35;;;;;;;;;;;;;;;20.50;52.73;98414.84;4458992;32;34385;-83
2022/09/26 01:14:03;;;;;;;;;;;;;;;20.45;52.39;98414.13;4458721;32;34856;-83
2022/09/26 01:16:30;;;;;;;;;;;;;;;19.68;54.32;98418.78;4466739;32;34347;-84
2022/09/26 01:18:58;;;;;;;;;;;;;;;20.30;52.88;98417.34;4466682;32;35131;-83
2022/09/26 01:21:34;;;;;;;;;;;;;;;19.85;53.65;98415.53;4451749;32;34390;-83
2022/09/26 01:24:17;;;;;;;;;;;;;;;19.37;55.57;98409.31;4466523;32;34011;-83
2022/09/26 01:26:44;;;;;;;;;;;;;;;19.11;56.60;98407.59;4466028;32;33151;-84
2022/09/26 01:29:12;;;;;;;;;;;;;;;20.02;53.86;98413.13;4466340;32;34319;-82
2022/09/26 01:35:01;;;;;;;;;;;;;;;19.34;55.40;98406.78;4460899;32;34632;-83
2022/09/26 01:37:30;;;;;;;;;;;;;;;19.85;54.46;98400.63;4462761;32;33953;-84
2022/09/26 01:39:57;;;;;;;;;;;;;;;19.35;55.90;98400.63;4454260;32;35065;-87
2022/09/26 01:42:27;;;;;;;;;;;;;;;19.48;55.45;98392.31;4470582;32;34809;-83
2022/09/26 01:45:06;;;;;;;;;;;;;;;19.96;53.98;98392.31;4474557;32;35128;-84
2022/09/26 01:47:41;;;;;;;;;;;;;;;20.67;52.21;98403.62;4453362;32;33442;-87
2022/09/26 01:50:27;;;;;;;;;;;;;;;21.07;51.32;98394.09;4457342;32;33294;-83
2022/09/26 01:52:57;;;;;;;;;;;;;;;19.73;54.48;98390.53;4484240;31;34972;-83
2022/09/26 01:55:27;;;;;;;;;;;;;;;20.74;51.74;98378.75;4484041;32;35313;-83
2022/09/26 01:57:54;;;;;;;;;;;;;;;20.95;51.37;98377.03;4475809;32;33603;-83
2022/09/26 02:00:21;;;;;;;;;;;;;;;20.54;52.37;98368.19;4476091;32;34071;-85
2022/09/26 02:02:49;;;;;;;;;;;;;;;20.92;51.11;98363.13;4469640;32;34120;-89
2022/09/26 02:05:32;;;;;;;;;;;;;;;21.19;50.55;98361.09;4469970;32;34992;-84
2022/09/26 02:08:11;;;;;;;;;;;;;;;21.38;49.75;98362.87;4456725;32;33184;-83
2022/09/26 02:10:41;;;;;;;;;;;;;;;21.11;50.62;98362.25;4482420;32;35000;-82
2022/09/26 02:13:13;;;;;;;;;;;;;;;20.67;51.93;98358.00;4468749;32;34076;-83
2022/09/26 02:15:43;;;;;;;;;;;;;;;20.87;51.30;98356.28;4458583;32;33977;-90
2022/09/26 02:18:20;;;;;;;;;;;;;;;21.36;50.06;98351.53;4457118;32;33617;-84
2022/09/26 02:20:54;;;;;;;;;;;;;;;19.96;53.69;98355.47;4454529;32;34067;-83
2022/09/26 02:23:22;;;;;;;;;;;;;;;20.40;52.09;98372.19;4468680;32;35219;-91
2022/09/26 02:25:51;;;;;;;;;;;;;;;20.76;51.36;98379.56;4478547;32;34264;-83
2022/09/26 02:28:19;;;;;;;;;;;;;;;21.12;50.66;98384.19;4480834;32;33125;-83
2022/09/26 02:30:48;;;;;;;;;;;;;;;21.30;50.32;98393.13;4469215;32;34227;-85
2022/09/26 02:33:15;;;;;;;;;;;;;;;21.79;49.17;98399.75;4466349;32;34365;-84
2022/09/26 02:35:54;;;;;;;;;;;;;;;21.89;48.87;98396.69;4470075;32;34388;-82
2022/09/26 02:38:23;;;;;;;;;;;;;;;21.14;50.46;98390.28;4480624;32;33952;-83
2022/09/26 02:41:00;;;;;;;;;;;;;;;21.75;48.85;98382.34;4468813;32;33958;-90
2022/09/26 02:43:28;;;;;;;;;;;;;;;21.40;49.78;98364.59;4476244;31;34971;-84
2022/09/26 02:45:55;;;;;;;;;;;;;;;20.29;52.60;98363.84;4478942;32;34106;-93
2022/09/26 02:48:23;;;;;;;;;;;;;;;21.26;49.90;98358.12;4468499;32;33414;-83
2022/09/26 02:50:51;;;;;;;;;;;;;;;21.16;49.91;98356.78;4467894;32;35097;-85
2022/09/26 02:53:38;;;;;;;;;;;;;;;21.23;49.90;98352.97;4469149;32;34288;-83
2022/09/26 02:56:13;;;;;;;;;;;;;;;21.41;49.30;98350.50;4481014;31;35074;-91
2022/09/26 02:58:58;;;;;;;;;;;;;;;21.53;49.13;98363.13;4483905;32;34292;-83
2022/09/26 03:01:45;;;;;;;;;;;;;;;21.49;48.93;98364.19;4476416;31;34041;-84
2022/09/26 03:04:22;;;;;;;;;;;;;;;21.36;49.10;98354.16;4468566;32;34224;-92
2022/09/26 03:06:50;;;;;;;;;;;;;;;21.14;49.79;98361.28;4463184;32;34532;-84
2022/09/26 03:09:17;;;;;;;;;;;;;;;21.17;49.75;98341.81;4469471;32;33485;-86
2022/09/26 03:11:44;;;;;;;;;;;;;;;20.45;51.63;98350.06;4467996;32;35011;-84
2022/09/26 03:14:12;;;;;;;;;;;;;;;21.31;49.44;98339.44;4458446;32;35045;-83
2022/09/26 03:16:40;;;;;;;;;;;;;;;21.35;49.29;98344.56;4462392;32;34525;-83
2022/09/26 03:19:09;;;;;;;;;;;;;;;21.39;49.14;98350.53;4468577;32;33716;-83
2022/09/26 03:21:37;;;;;;;;;;;;;;;20.15;52.41;98342.47;4461217;32;33947;-82
2022/09/26 03:24:04;;;;;;;;;;;;;;;20.64;51.13;98341.38;4470473;32;35350;-89
2022/09/26 03:26:32;;;;;;;;;;;;;;;20.35;51.91;98334.66;4460419;32;35260;-83
2022/09/26 03:28:59;;;;;;;;;;;;;;;20.00;52.89;98332.53;4462726;32;32504;-92
2022/09/26 03:31:27;;;;;;;;;;;;;;;19.22;55.22;98320.50;4470944;32;34129;-94
2022/09/26 03:33:55;;;;;;;;;;;;;;;19.76;53.92;98319.41;4471260;32;34434;-83
2022/09/26 03:36:23;;;;;;;;;;;;;;;19.84;53.76;98309.47;4473099;32;33925;-84
2022/09/26 03:38:50;;;;;;;;;;;;;;;20.41;52.19;98305.44;4483013;32;33740;-83
2022/09/26 03:41:18;;;;;;;;;;;;;;;20.84;51.18;98295.78;4473572;32;34229;-83
2022/09/26 03:43:48;;;;;;;;;;;;;;;21.17;49.87;98300.50;4468049;32;34078;-84
2022/09/26 03:46:15;;;;;;;;;;;;;;;20.73;50.71;98298.03;4475091;32;34273;-91
2022/09/26 03:48:43;;;;;;;;;;;;;;;20.15;52.49;98300.38;4482056;32;33143;-91
2022/09/26 03:51:12;;;;;;;;;;;;;;;19.63;54.10;98300.63;4481402;32;34698;-89
2022/09/26 03:53:40;;;;;;;;;;;;;;;19.91;53.46;98291.66;4464217;32;34468;-82
2022/09/26 03:56:08;;;;;;;;;;;;;;;20.59;51.77;98281.94;4481415;32;34489;-91
2022/09/26 03:58:36;;;;;;;;;;;;;;;20.30;52.26;98281.31;4470191;32;33353;-83
2022/09/26 04:01:07;;;;;;;;;;;;;;;20.38;52.06;98278.37;4468427;32;34215;-83
2022/09/26 04:03:35;;;;;;;;;;;;;;;20.33;52.09;98275.09;4469600;32;34397;-92
2022/09/26 04:06:03;;;;;;;;;;;;;;;20.62;51.39;98261.59;4471544;32;35064;-82
2022/09/26 04:08:30;;;;;;;;;;;;;;;19.52;54.58;98265.13;4481056;32;33404;-82
2022/09/26 04:11:02;;;;;;;;;;;;;;;20.42;52.16;98266.84;4459887;32;33921;-82
2022/09/26 04:13:29;;;;;;;;;;;;;;;20.82;51.21;98268.66;4460939;32;34185;-93
2022/09/26 04:16:18;;;;;;;;;;;;;;;20.63;51.71;98265.09;4463355;32;34797;-91
2022/09/26 04:18:46;;;;;;;;;;;;;;;20.66;51.37;98262.34;4471257;32;34157;-83
2022/09/26 04:21:14;;;;;;;;;;;;;;;20.79;50.98;98262.66;4472779;32;35021;-83
2022/09/26 04:23:42;;;;;;;;;;;;;;;20.92;50.62;98260.38;4477741;32;35296;-83
2022/09/26 04:26:11;;;;;;;;;;;;;;;21.14;50.03;98264.63;4467941;32;34612;-83
2022/09/26 04:28:39;;;;;;;;;;;;;;;20.35;52.33;98253.06;4476808;32;33760;-84
2022/09/26 04:31:08;;;;;;;;;;;;;;;20.80;50.93;98257.34;4483156;32;34755;-92
2022/09/26 04:33:38;;;;;;;;;;;;;;;20.81;50.77;98255.56;4482813;32;34594;-84
2022/09/26 04:36:06;;;;;;;;;;;;;;;20.71;51.28;98254.22;4469306;32;35136;-83
2022/09/26 04:38:34;;;;;;;;;;;;;;;21.18;50.14;98257.44;4476269;32;33838;-91
2022/09/26 04:41:10;;;;;;;;;;;;;;;21.03;50.46;98251.06;4476183;31;34104;-82
2022/09/26 04:43:37;;;;;;;;;;;;;;;22.01;47.61;98246.56;4467083;32;32694;-81
2022/09/26 04:46:06;;;;;;;;;;;;;;;21.81;48.29;98255.41;4467636;32;34256;-82
2022/09/26 04:48:35;;;;;;;;;;;;;;;21.14;50.00;98259.34;4477790;32;34426;-82
2022/09/26 04:51:03;;;;;;;;;;;;;;;21.74;48.42;98259.25;4474506;32;34814;-82
2022/09/26 04:53:31;;;;;;;;;;;;;;;21.58;48.93;98268.81;4476765;32;34308;-83
2022/09/26 04:55:58;;;;;;;;;;;;;;;21.68;48.87;98278.03;4478606;32;35018;-82
2022/09/26 04:58:28;;;;;;;;;;;;;;;22.01;48.17;98278.22;4469958;32;33143;-82
2022/09/26 05:01:00;;;;;;;;;;;;;;;22.07;48.11;98261.22;4466579;32;34245;-83
2022/09/26 05:03:29;;;;;;;;;;;;;;;22.09;47.75;98264.66;4466660;32;34392;-82
2022/09/26 05:05:57;;;;;;;;;;;;;;;22.10;47.65;98280.41;4441568;32;786240;-86
2022/09/26 05:08:24;;;;;;;;;;;;;;;22.13;47.59;98266.22;4453041;32;33775;-83
2022/09/26 05:10:53;;;;;;;;;;;;;;;22.04;47.61;98272.78;4466633;32;35072;-83
2022/09/26 05:13:21;;;;;;;;;;;;;;;22.32;47.10;98271.50;4466917;32;35433;-83
2022/09/26 05:15:52;;;;;;;;;;;;;;;22.50;46.45;98269.72;4466995;32;34649;-83
2022/09/26 05:18:20;;;;;;;;;;;;;;;22.57;46.46;98271.97;4453115;32;34344;-84
2022/09/26 05:20:47;;;;;;;;;;;;;;;22.25;47.19;98268.28;4452658;32;34024;-83
2022/09/26 05:26:18;;;;;;;;;;;;;;;22.46;46.63;98261.06;4467116;32;35310;-83
2022/09/26 05:26:19;;;;;;;;;;;;;;;22.44;46.69;98260.31;4454255;32;34505;-83
2022/09/26 05:28:48;;;;;;;;;;;;;;;22.24;47.30;98266.59;4468171;32;34492;-84
2022/09/26 05:31:15;;;;;;;;;;;;;;;22.37;46.99;98252.78;4469098;32;34090;-83
2022/09/26 05:33:44;;;;;;;;;;;;;;;22.52;46.62;98254.66;4469009;32;34511;-91
2022/09/26 05:36:11;;;;;;;;;;;;;;;22.37;47.11;98251.00;4468190;32;34282;-83
2022/09/26 05:38:39;;;;;;;;;;;;;;;22.31;47.19;98265.38;4454362;32;33434;-84
2022/09/26 05:41:06;;;;;;;;;;;;;;;22.42;47.11;98261.31;4468101;32;33822;-85
2022/09/26 05:43:34;;;;;;;;;;;;;;;22.27;47.17;98255.84;4467804;32;33686;-84
2022/09/26 05:46:03;;;;;;;;;;;;;;;22.04;47.88;98266.66;4468734;32;34253;-84
2022/09/26 05:48:32;;;;;;;;;;;;;;;22.22;47.39;98276.34;4474261;32;34506;-87
2022/09/26 05:51:10;;;;;;;;;;;;;;;22.05;47.80;98277.16;4483977;32;34193;-86
2022/09/26 05:53:38;;;;;;;;;;;;;;;22.29;47.33;98272.50;4484546;32;34523;-84
2022/09/26 05:56:06;;;;;;;;;;;;;;;22.23;47.55;98271.94;4482839;32;35119;-84
2022/09/26 05:58:36;;;;;;;;;;;;;;;21.82;48.59;98267.69;4454790;32;33758;-91
2022/09/26 06:01:06;;;;;;;;;;;;;;;22.26;47.42;98258.59;4455800;32;33862;-83
2022/09/26 06:03:34;;;;;;;;;;;;;;;21.99;48.19;98263.37;4477144;32;34514;-86
2022/09/26 06:06:06;;;;;;;;;;;;;;;22.03;48.15;98249.97;4470911;32;35179;-86
2022/09/26 06:08:34;;;;;;;;;;;;;;;21.76;49.17;98243.38;4482989;32;33231;-87
2022/09/26 06:11:03;;;;;;;;;;;;;;;21.93;48.68;98232.00;4469427;32;33587;-84
2022/09/26 06:13:30;;;;;;;;;;;;;;;22.01;48.48;98222.81;4457531;32;34128;-84
2022/09/26 06:16:02;;;;;;;;;;;;;;;22.24;47.98;98242.81;4472748;32;34979;-84
2022/09/26 06:18:33;;;;;;;;;;;;;;;22.16;48.34;98230.91;4474238;32;33159;-84
2022/09/26 06:21:03;;;;;;;;;;;;;;;22.29;47.90;98235.53;4480633;32;34756;-84
2022/09/26 06:23:33;;;;;;;;;;;;;;;22.54;47.25;98229.88;4472359;32;35229;-84
2022/09/26 06:26:01;;;;;;;;;;;;;;;22.54;47.33;98234.28;4468566;32;35011;-85
2022/09/26 06:28:28;;;;;;;;;;;;;;;22.38;47.80;98238.63;4461894;32;34529;-84
2022/09/26 06:30:56;;;;;;;;;;;;;;;22.06;48.59;98233.97;4454365;32;35146;-84
2022/09/26 06:33:24;;;;;;;;;;;;;;;22.28;48.09;98241.75;4469160;32;34074;-85
2022/09/26 06:36:04;;;;;;;;;;;;;;;22.47;47.69;98241.69;4471873;32;34316;-84
2022/09/26 06:38:31;;;;;;;;;;;;;;;22.64;47.41;98239.97;4470572;32;33661;-83
2022/09/26 06:40:59;;;;;;;;;;;;;;;21.47;50.26;98250.84;4468554;32;33950;-91
2022/09/26 06:43:26;;;;;;;;;;;;;;;22.32;48.10;98251.22;4456517;32;33602;-86
2022/09/26 06:45:56;;;;;;;;;;;;;;;22.23;48.14;98259.56;4481367;32;34637;-84
2022/09/26 06:48:24;;;;;;;;;;;;;;;22.27;47.85;98253.22;4477372;32;33059;-84
2022/09/26 06:50:52;;;;;;;;;;;;;;;22.49;47.48;98252.16;4483895;32;34054;-84
2022/09/26 06:53:20;;;;;;;;;;;;;;;22.24;48.05;98253.38;4484114;32;34087;-85
2022/09/26 06:55:47;;;;;;;;;;;;;;;22.25;48.19;98247.16;4484205;32;34564;-83
2022/09/26 06:58:15;;;;;;;;;;;;;;;22.74;47.19;98247.34;4463934;32;33874;-91
2022/09/26 07:00:46;;;;;;;;;;;;;;;22.38;48.01;98254.47;4454702;32;34008;-84
2022/09/26 07:03:18;;;;;;;;;;;;;;;22.70;47.38;98251.06;4474285;32;34441;-85
2022/09/26 07:05:45;;;;;;;;;;;;;;;22.70;47.60;98251.06;4483837;32;34628;-84
2022/09/26 07:08:12;;;;;;;;;;;;;;;22.92;46.92;98245.59;4484101;31;33604;-84
2022/09/26 07:10:40;;;;;;;;;;;;;;;22.98;46.68;98249.69;4484103;32;35099;-85
2022/09/26 07:13:09;;;;;;;;;;;;;;;21.69;49.75;98245.44;4483938;32;34358;-84
2022/09/26 07:15:36;;;;;;;;;;;;;;;21.63;50.20;98251.03;4455967;32;35197;-83
2022/09/26 07:18:05;;;;;;;;;;;;;;;21.44;50.90;98258.03;4468254;32;33713;-91
2022/09/26 07:20:35;;;;;;;;;;;;;;;22.06;49.38;98249.81;4468078;32;35110;-84
2022/09/26 07:23:03;;;;;;;;;;;;;;;22.32;48.84;98238.00;4454240;32;34668;-85
2022/09/26 07:25:32;;;;;;;;;;;;;;;22.14;49.50;98246.00;4468026;32;34269;-87
2022/09/26 07:28:00;;;;;;;;;;;;;;;21.18;51.96;98249.53;4468150;32;33717;-84
2022/09/26 07:30:30;;;;;;;;;;;;;;;21.47;51.39;98244.72;4468706;32;34933;-84
2022/09/26 07:33:01;;;;;;;;;;;;;;;21.15;52.47;98265.47;4467998;32;35685;-84
2022/09/26 07:35:33;;;;;;;;;;;;;;;21.45;51.93;98272.97;4467807;32;34271;-84
2022/09/26 07:38:01;;;;;;;;;;;;;;;21.60;51.73;98278.37;4479092;32;33412;-87
2022/09/26 07:40:28;;;;;;;;;;;;;;;21.56;52.23;98279.44;4483680;31;33799;-84
2022/09/26 07:42:59;;;;;;;;;;;;;;;20.89;53.92;98272.72;4483867;32;34104;-84
2022/09/26 07:51:22;;;;;;;;;;;;;;;19.82;56.60;98300.78;4468145;32;34820;-89
2022/09/26 07:53:49;;;;;;;;;;;;;;;20.71;53.88;98299.84;4454230;32;34137;-84
2022/09/26 07:56:17;;;;;;;;;;;;;;;20.70;53.98;98303.41;4467876;32;33233;-86
2022/09/26 07:58:47;;;;;;;;;;;;;;;20.84;53.59;98293.16;4468049;32;34343;-88
2022/09/26 08:01:15;;;;;;;;;;;;;;;20.22;55.25;98296.56;4479744;32;34545;-84
2022/09/26 08:03:48;;;;;;;;;;;;;;;20.76;53.99;98297.91;4483454;32;33563;-84
2022/09/26 08:06:19;;;;;;;;;;;;;;;21.08;53.05;98285.09;4483517;32;34495;-83
2022/09/26 08:08:47;;;;;;;;;;;;;;;21.20;52.96;98292.47;4483222;32;33597;-90
2022/09/26 08:11:19;;;;;;;;;;;;;;;21.54;51.96;98288.34;4483810;31;34281;-83
2022/09/26 08:13:47;;;;;;;;;;;;;;;20.26;55.42;98290.25;4469257;32;34491;-85
2022/09/26 08:16:23;;;;;;;;;;;;;;;20.96;53.59;98296.19;4480999;32;35206;-84
2022/09/26 08:18:52;;;;;;;;;;;;;;;21.21;52.90;98296.81;4482664;31;33615;-83
2022/09/26 08:21:20;;;;;;;;;;;;;;;21.66;51.94;98297.47;4483352;32;34137;-84
2022/09/26 08:23:49;;;;;;;;;;;;;;;21.71;51.72;98296.34;4483444;32;34138;-90
2022/09/26 08:26:20;;;;;;;;;;;;;;;21.76;51.58;98286.44;4483392;32;34575;-87
2022/09/26 08:28:47;;;;;;;;;;;;;;;21.25;53.05;98286.97;4483017;32;34047;-84
2022/09/26 08:31:15;;;;;;;;;;;;;;;21.84;51.78;98292.22;4483439;32;33979;-83
2022/09/26 08:33:43;;;;;;;;;;;;;;;22.45;50.06;98288.44;4480808;31;34251;-83
2022/09/26 08:36:11;;;;;;;;;;;;;;;21.14;53.19;98292.75;4467688;32;34385;-85
2022/09/26 08:38:40;;;;;;;;;;;;;;;21.64;52.00;98294.94;4467550;32;33529;-84
2022/09/26 08:41:10;;;;;;;;;;;;;;;21.46;52.99;98307.16;4467649;32;33709;-83
2022/09/26 08:43:57;;;;;;;;;;;;;;;21.62;51.85;98300.25;4468032;32;33722;-85
2022/09/26 08:46:46;;;;;;;;;;;;;;;21.67;51.80;98302.72;4482488;32;34669;-84
2022/09/26 08:49:21;;;;;;;;;;;;;;;21.21;53.20;98296.81;4483006;32;33632;-89
2022/09/26 08:51:50;;;;;;;;;;;;;;;22.12;51.05;98306.72;4483271;32;34849;-84
2022/09/26 08:54:17;;;;;;;;;;;;;;;21.86;52.14;98295.66;4468766;32;35184;-89
2022/09/26 08:56:45;;;;;;;;;;;;;;;21.48;53.20;98293.91;4483288;32;35125;-87
2022/09/26 08:59:34;;;;;;;;;;;;;;;22.45;50.88;98290.22;4468827;32;33383;-83
2022/09/26 09:02:03;;;;;;;;;;;;;;;21.74;53.52;98304.09;4464892;32;34067;-83
2022/09/26 09:04:34;;;;;;;;;;;;;;;20.57;56.01;98307.47;4453318;32;34318;-84
2022/09/26 09:07:06;;;;;;;;;;;;;;;20.71;55.62;98312.19;4466930;32;34078;-83
2022/09/26 09:09:33;;;;;;;;;;;;;;;21.60;52.80;98311.81;4449607;32;33579;-84
2022/09/26 09:12:08;;;;;;;;;;;;;;;20.72;55.62;98313.88;4450810;32;34988;-88
2022/09/26 09:14:43;;;;;;;;;;;;;;;21.15;53.91;98307.66;4451146;32;35225;-85
2022/09/26 09:17:23;;;;;;;;;;;;;;;21.44;54.02;98308.16;4451595;32;33868;-83
2022/09/26 09:20:10;;;;;;;;;;;;;;;21.82;53.16;98306.38;4450984;32;34311;-84
2022/09/26 09:22:39;;;;;;;;;;;;;;;22.29;50.98;98295.41;4466578;32;33780;-84
2022/09/26 09:25:15;;;;;;;;;;;;;;;21.82;52.14;98302.00;4467048;32;34446;-87
2022/09/26 09:27:58;;;;;;;;;;;;;;;21.19;53.80;98300.47;4466558;32;34341;-86
2022/09/26 09:31:04;;;;;;;;;;;;;;;22.17;51.69;98296.00;4467192;32;34320;-84
2022/09/26 09:33:40;;;;;;;;;;;;;;;22.04;53.17;98300.97;4453877;32;34223;-84
2022/09/26 09:36:17;;;;;;;;;;;;;;;22.27;51.90;98289.31;4465570;32;34320;-85
2022/09/26 09:38:46;;;;;;;;;;;;;;;21.80;52.75;98295.91;4459335;32;34257;-86
2022/09/26 09:41:23;;;;;;;;;;;;;;;21.92;52.66;98291.00;4451324;32;34249;-83
2022/09/26 09:43:54;;;;;;;;;;;;;;;22.31;51.74;98285.59;4449862;32;34227;-83
2022/09/26 09:46:27;;;;;;;;;;;;;;;21.57;53.24;98288.22;4450853;32;35208;-87
2022/09/26 09:49:18;;;;;;;;;;;;;;;21.04;54.22;98278.25;4450883;32;34851;-83
2022/09/26 09:51:58;;;;;;;;;;;;;;;22.07;52.08;98263.87;4443286;32;33127;-87
2022/09/26 09:54:41;;;;;;;;;;;;;;;21.94;53.82;98260.97;4459999;32;33856;-87
2022/09/26 09:57:27;;;;;;;;;;;;;;;21.52;53.97;98267.34;4449454;32;35492;-84
2022/09/26 09:59:57;;;;;;;;;;;;;;;21.98;52.83;98277.53;4450951;32;33972;-84
2022/09/26 10:02:31;;;;;;;;;;;;;;;20.83;53.77;98265.09;4450877;32;33245;-84
2022/09/26 10:05:18;;;;;;;;;;;;;;;21.31;53.84;98269.13;4450757;32;34050;-88
2022/09/26 10:07:46;;;;;;;;;;;;;;;22.49;50.99;98262.72;4450523;32;35240;-82
2022/09/26 10:10:18;;;;;;;;;;;;;;;21.52;52.32;98258.56;4452660;32;34207;-85
2022/09/26 10:12:54;;;;;;;;;;;;;;;22.10;51.39;98258.44;4455192;32;32158;-84
2022/09/26 10:15:26;;;;;;;;;;;;;;;21.52;52.21;98255.94;4454671;32;33610;-84
2022/09/26 10:18:10;;;;;;;;;;;;;;;21.67;55.04;98265.78;4477936;32;35092;-83
2022/09/26 10:20:56;;;;;;;;;;;;;;;22.15;50.69;98253.81;4468724;32;35179;-85
2022/09/26 10:23:30;;;;;;;;;;;;;;;22.09;51.50;98267.31;4468426;32;33040;-85
2022/09/26 10:26:04;;;;;;;;;;;;;;;21.35;53.08;98272.50;4454372;32;33970;-84
2022/09/26 10:28:51;;;;;;;;;;;;;;;21.08;53.07;98279.84;4454649;32;34235;-84
2022/09/26 10:31:23;;;;;;;;;;;;;;;21.29;52.87;98278.00;4468750;32;34605;-84
2022/09/26 10:33:55;;;;;;;;;;;;;;;21.85;52.19;98283.34;4454174;32;33331;-86
2022/09/26 10:36:28;;;;;;;;;;;;;;;21.63;51.40;98290.59;4462318;31;33641;-84
2022/09/26 10:41:44;;;;;;;;;;;;;;;22.27;48.59;98284.91;4484181;31;34977;-85
2022/09/26 10:44:25;;;;;;;;;;;;;;;21.87;50.43;98285.94;4484051;31;34071;-85
2022/09/26 10:46:56;;;;;;;;;;;;;;;22.44;48.92;98280.59;4484038;32;33033;-84
2022/09/26 10:49:35;;;;;;;;;;;;;;;22.43;48.72;98273.63;4470030;32;34883;-87
2022/09/26 10:52:10;;;;;;;;;;;;;;;22.70;48.68;98268.72;4469998;32;33018;-86
2022/09/26 10:55:03;;;;;;;;;;;;;;;22.86;47.70;98274.94;4482492;32;34493;-86
2022/09/26 10:57:34;;;;;;;;;;;;;;;23.11;46.89;98277.19;4468102;32;33848;-83
2022/09/26 11:00:05;;;;;;;;;;;;;;;23.35;45.20;98279.47;4468430;32;33931;-86
2022/09/26 11:02:33;;;;;;;;;;;;;;;22.96;47.17;98288.56;4476795;32;34178;-84
2022/09/26 11:07:51;;;;;;;;;;;;;;;23.57;45.13;98280.03;4483381;32;34609;-86
2022/09/26 11:10:22;;;;;;;;;;;;;;;22.83;47.22;98280.38;4483845;32;35291;-84
2022/09/26 11:12:56;;;;;;;;;;;;;;;22.88;46.89;98288.06;4469768;32;34258;-85
2022/09/26 11:15:25;;;;;;;;;;;;;;;22.41;47.68;98293.94;4478017;31;34282;-87
2022/09/26 11:17:54;;;;;;;;;;;;;;;22.93;47.35;98286.94;4467888;32;34211;-86
2022/09/26 11:20:43;;;;;;;;;;;;;;;23.11;46.30;98281.59;4468123;32;35125;-87
2022/09/26 11:23:14;;;;;;;;;;;;;;;23.29;47.58;98278.00;4453024;32;34260;-85
2022/09/26 11:25:53;;;;;;;;;;;;;;;22.81;47.01;98280.44;4467923;32;34475;-84
2022/09/26 11:28:30;;;;;;;;;;;;;;;23.20;46.96;98278.50;4477413;31;34854;-86
2022/09/26 11:30:59;;;;;;;;;;;;;;;22.43;47.27;98282.38;4454144;32;34420;-87
2022/09/26 11:33:29;;;;;;;;;;;;;;;21.45;49.24;98278.25;4468078;32;34784;-86
2022/09/26 11:36:09;;;;;;;;;;;;;;;21.41;49.40;98277.53;4467968;32;32616;-86
2022/09/26 11:38:46;;;;;;;;;;;;;;;22.32;49.94;98275.00;4467682;32;34378;-84
2022/09/26 11:41:47;;;;;;;;;;;;;;;23.25;44.98;98264.06;4456360;32;35050;-85
2022/09/26 11:44:18;;;;;;;;;;;;;;;22.28;48.35;98269.94;4457441;32;34330;-84
2022/09/26 11:46:52;;;;;;;;;;;;;;;21.77;48.67;98280.22;4483523;32;33107;-83
2022/09/26 11:49:23;;;;;;;;;;;;;;;22.20;48.58;98283.50;4478642;32;33796;-85
2022/09/26 11:51:53;;;;;;;;;;;;;;;21.59;48.68;98281.97;4467778;32;34389;-84
2022/09/26 11:54:32;;;;;;;;;;;;;;;22.49;47.14;98275.94;4467878;32;34541;-84
2022/09/26 11:57:07;;;;;;;;;;;;;;;21.14;49.67;98284.84;4467776;32;33643;-84
2022/09/26 11:59:37;;;;;;;;;;;;;;;21.60;49.09;98273.09;4467770;32;34178;-83
2022/09/26 12:02:23;;;;;;;;;;;;;;;21.94;48.53;98287.38;4474214;32;35126;-82
2022/09/26 12:04:53;;;;;;;;;;;;;;;21.37;49.73;98276.81;4479774;32;34434;-86
2022/09/26 12:07:22;;;;;;;;;;;;;;;22.50;46.49;98275.00;4479395;32;33225;-83
2022/09/26 12:09:56;;;;;;;;;;;;;;;22.43;46.90;98258.63;4455805;32;35014;-85
2022/09/26 12:12:27;;;;;;;;;;;;;;;23.33;46.53;98253.09;4467591;32;34025;-83
2022/09/26 12:15:10;;;;;;;;;;;;;;;22.92;46.58;98250.00;4467747;32;34341;-86
2022/09/26 12:17:40;;;;;;;;;;;;;;;23.11;46.97;98245.47;4457727;32;33295;-83
2022/09/26 12:20:23;;;;;;;;;;;;;;;23.86;43.14;98241.37;4469283;32;34872;-85
2022/09/26 12:22:55;;;;;;;;;;;;;;;23.55;43.27;98224.53;4468911;32;34331;-83
2022/09/26 12:25:34;;;;;;;;;;;;;;;23.21;46.39;98216.72;4483210;31;34663;-84
2022/09/26 12:28:02;;;;;;;;;;;;;;;23.67;44.97;98217.75;4483418;32;32491;-84
2022/09/26 12:30:50;;;;;;;;;;;;;;;23.35;44.76;98221.28;4483299;32;33430;-87
2022/09/26 12:33:24;;;;;;;;;;;;;;;23.26;44.65;98223.50;4451539;32;34468;-86
2022/09/26 12:35:54;;;;;;;;;;;;;;;23.34;45.00;98217.78;4458655;32;33862;-86
2022/09/26 12:38:34;;;;;;;;;;;;;;;23.07;46.89;98222.78;4467234;32;34325;-84
2022/09/26 12:41:17;;;;;;;;;;;;;;;23.26;44.50;98215.56;4467538;32;34398;-84
2022/09/26 12:43:47;;;;;;;;;;;;;;;22.99;45.46;98222.31;4467431;32;33804;-85
2022/09/26 12:46:19;;;;;;;;;;;;;;;23.51;43.36;98216.84;4467207;32;35218;-84
2022/09/26 12:49:00;;;;;;;;;;;;;;;22.78;45.25;98217.19;4453372;32;34264;-86
2022/09/26 12:51:33;;;;;;;;;;;;;;;23.31;45.28;98210.03;4467133;32;33783;-83
2022/09/26 12:54:19;;;;;;;;;;;;;;;23.79;43.66;98203.84;4467092;32;35048;-86
2022/09/26 12:56:55;;;;;;;;;;;;;;;24.16;43.52;98201.72;4467691;32;35071;-87
2022/09/26 12:59:31;;;;;;;;;;;;;;;24.21;44.86;98204.13;4482942;32;33223;-85
2022/09/26 13:02:07;;;;;;;;;;;;;;;23.73;44.59;98206.81;4476084;32;33993;-87
2022/09/26 13:04:53;;;;;;;;;;;;;;;24.28;43.18;98201.03;4466866;32;34211;-83
2022/09/26 13:07:33;;;;;;;;;;;;;;;24.15;44.23;98202.69;4467047;32;34027;-88
2022/09/26 13:10:00;;;;;;;;;;;;;;;24.35;41.93;98208.59;4467612;32;33219;-86
2022/09/26 13:12:39;;;;;;;;;;;;;;;24.13;44.34;98209.87;4481726;31;34042;-82
2022/09/26 13:15:13;;;;;;;;;;;;;;;23.71;44.12;98213.97;4482626;32;34123;-83
2022/09/26 13:17:43;;;;;;;;;;;;;;;23.68;43.56;98208.03;4468974;32;34307;-83
2022/09/26 13:20:13;;;;;;;;;;;;;;;23.95;43.28;98195.03;4468588;32;34257;-87
2022/09/26 13:22:55;;;;;;;;;;;;;;;24.33;42.67;98199.91;4468530;32;33941;-87
2022/09/26 13:25:31;;;;;;;;;;;;;;;24.11;43.93;98201.16;4468393;32;35174;-84
2022/09/26 13:28:08;;;;;;;;;;;;;;;23.74;44.13;98195.28;4464515;32;34183;-88